sensor_id;sensor_type;location;lat;lon;timestamp;P1;durP1;ratioP1;P2;durP2;ratioP2
72850;SDS011;61171;43.848;10.510;2022-12-07T00:00:36;48.28;;;34.58;;
72850;SDS011;61171;43.848;10.510;2022-12-07T00:02:36;46.83;;;33.90;;
72850;SDS011;61171;43.848;10.510;2022-12-07T00:04:36;50.40;;;34.63;;
72850;SDS011;61171;43.848;10.510;2022-12-07T00:06:40;48.20;;;35.53;;
72850;SDS011;61171;43.848;10.510;2022-12-07T00:08:40;47.45;;;34.95;;
72850;SDS011;61171;43.848;10.510;2022-12-07T00:10:41;50.20;;;36.40;;
72850;SDS011;61171;43.848;10.510;2022-12-07T00:12:41;48.37;;;34.77;;
72850;SDS011;61171;43.848;10.510;2022-12-07T00:14:41;48.93;;;36.20;;
72850;SDS011;61171;43.848;10.510;2022-12-07T00:16:42;47.50;;;34.27;;
72850;SDS011;61171;43.848;10.510;2022-12-07T00:18:43;51.25;;;35.55;;
72850;SDS011;61171;43.848;10.510;2022-12-07T00:20:44;44.60;;;32.40;;
72850;SDS011;61171;43.848;10.510;2022-12-07T00:22:44;49.30;;;34.73;;
72850;SDS011;61171;43.848;10.510;2022-12-07T00:24:44;48.33;;;35.77;;
72850;SDS011;61171;43.848;10.510;2022-12-07T00:26:44;49.27;;;34.17;;
72850;SDS011;61171;43.848;10.510;2022-12-07T00:28:49;47.53;;;34.77;;
72850;SDS011;61171;43.848;10.510;2022-12-07T00:30:49;46.95;;;34.67;;
72850;SDS011;61171;43.848;10.510;2022-12-07T00:32:49;47.97;;;35.17;;
72850;SDS011;61171;43.848;10.510;2022-12-07T00:34:50;46.53;;;34.33;;
72850;SDS011;61171;43.848;10.510;2022-12-07T00:36:50;45.33;;;33.63;;
72850;SDS011;61171;43.848;10.510;2022-12-07T00:38:50;50.23;;;35.87;;
72850;SDS011;61171;43.848;10.510;2022-12-07T00:40:57;49.67;;;34.58;;
72850;SDS011;61171;43.848;10.510;2022-12-07T00:42:58;49.27;;;35.93;;
72850;SDS011;61171;43.848;10.510;2022-12-07T00:44:58;46.07;;;35.20;;
72850;SDS011;61171;43.848;10.510;2022-12-07T00:46:58;50.33;;;34.73;;
72850;SDS011;61171;43.848;10.510;2022-12-07T00:48:58;46.53;;;33.03;;
72850;SDS011;61171;43.848;10.510;2022-12-07T00:50:59;47.63;;;34.57;;
72850;SDS011;61171;43.848;10.510;2022-12-07T00:52:59;44.10;;;32.77;;
72850;SDS011;61171;43.848;10.510;2022-12-07T00:54:59;44.10;;;33.07;;
72850;SDS011;61171;43.848;10.510;2022-12-07T00:56:59;47.23;;;33.67;;
72850;SDS011;61171;43.848;10.510;2022-12-07T00:59:01;46.43;;;34.50;;
72850;SDS011;61171;43.848;10.510;2022-12-07T01:01:02;47.30;;;34.65;;
72850;SDS011;61171;43.848;10.510;2022-12-07T01:03:06;45.10;;;33.17;;
72850;SDS011;61171;43.848;10.510;2022-12-07T01:05:06;44.78;;;33.50;;
72850;SDS011;61171;43.848;10.510;2022-12-07T01:07:07;47.57;;;34.77;;
72850;SDS011;61171;43.848;10.510;2022-12-07T01:09:07;49.60;;;36.13;;
72850;SDS011;61171;43.848;10.510;2022-12-07T01:11:07;44.20;;;33.77;;
72850;SDS011;61171;43.848;10.510;2022-12-07T01:13:08;47.35;;;34.00;;
72850;SDS011;61171;43.848;10.510;2022-12-07T01:15:08;43.03;;;32.43;;
72850;SDS011;61171;43.848;10.510;2022-12-07T01:17:09;44.23;;;33.53;;
72850;SDS011;61171;43.848;10.510;2022-12-07T01:19:09;45.93;;;32.03;;
72850;SDS011;61171;43.848;10.510;2022-12-07T01:21:10;45.30;;;33.90;;
72850;SDS011;61171;43.848;10.510;2022-12-07T01:23:11;44.85;;;32.95;;
72850;SDS011;61171;43.848;10.510;2022-12-07T01:25:12;43.60;;;31.80;;
72850;SDS011;61171;43.848;10.510;2022-12-07T01:27:12;42.90;;;32.10;;
72850;SDS011;61171;43.848;10.510;2022-12-07T01:29:12;44.05;;;32.55;;
72850;SDS011;61171;43.848;10.510;2022-12-07T01:31:14;45.33;;;33.97;;
72850;SDS011;61171;43.848;10.510;2022-12-07T01:33:17;44.17;;;32.17;;
72850;SDS011;61171;43.848;10.510;2022-12-07T01:35:17;42.60;;;32.37;;
72850;SDS011;61171;43.848;10.510;2022-12-07T01:37:17;42.57;;;32.47;;
72850;SDS011;61171;43.848;10.510;2022-12-07T01:39:18;43.30;;;31.20;;
72850;SDS011;61171;43.848;10.510;2022-12-07T01:41:18;42.40;;;32.03;;
72850;SDS011;61171;43.848;10.510;2022-12-07T01:43:19;47.08;;;33.92;;
72850;SDS011;61171;43.848;10.510;2022-12-07T01:45:39;46.47;;;33.10;;
72850;SDS011;61171;43.848;10.510;2022-12-07T01:47:41;39.55;;;30.25;;
72850;SDS011;61171;43.848;10.510;2022-12-07T01:49:42;42.88;;;30.67;;
72850;SDS011;61171;43.848;10.510;2022-12-07T01:51:44;43.97;;;31.95;;
72850;SDS011;61171;43.848;10.510;2022-12-07T01:53:45;41.55;;;31.45;;
72850;SDS011;61171;43.848;10.510;2022-12-07T01:55:47;45.07;;;32.67;;
72850;SDS011;61171;43.848;10.510;2022-12-07T01:57:48;42.80;;;30.90;;
72850;SDS011;61171;43.848;10.510;2022-12-07T01:59:54;41.92;;;31.85;;
72850;SDS011;61171;43.848;10.510;2022-12-07T02:01:56;40.85;;;31.52;;
72850;SDS011;61171;43.848;10.510;2022-12-07T02:03:56;39.87;;;29.53;;
72850;SDS011;61171;43.848;10.510;2022-12-07T02:05:58;41.57;;;30.53;;
72850;SDS011;61171;43.848;10.510;2022-12-07T02:07:59;40.55;;;31.50;;
72850;SDS011;61171;43.848;10.510;2022-12-07T02:12:15;39.65;;;30.40;;
72850;SDS011;61171;43.848;10.510;2022-12-07T02:14:15;38.67;;;29.73;;
72850;SDS011;61171;43.848;10.510;2022-12-07T02:31:11;38.37;;;28.97;;
72850;SDS011;61171;43.848;10.510;2022-12-07T02:35:20;41.60;;;29.65;;
72850;SDS011;61171;43.848;10.510;2022-12-07T02:39:37;41.88;;;29.48;;
72850;SDS011;61171;43.848;10.510;2022-12-07T02:41:42;37.85;;;28.38;;
72850;SDS011;61171;43.848;10.510;2022-12-07T02:45:44;37.53;;;28.63;;
72850;SDS011;61171;43.848;10.510;2022-12-07T02:47:46;38.73;;;29.70;;
72850;SDS011;61171;43.848;10.510;2022-12-07T02:49:48;38.03;;;28.75;;
72850;SDS011;61171;43.848;10.510;2022-12-07T02:51:49;38.27;;;29.60;;
72850;SDS011;61171;43.848;10.510;2022-12-07T02:53:50;41.20;;;30.30;;
72850;SDS011;61171;43.848;10.510;2022-12-07T02:55:50;39.00;;;29.97;;
72850;SDS011;61171;43.848;10.510;2022-12-07T03:04:20;41.00;;;29.90;;
72850;SDS011;61171;43.848;10.510;2022-12-07T03:06:36;39.55;;;29.20;;
72850;SDS011;61171;43.848;10.510;2022-12-07T03:11:13;39.33;;;30.00;;
72850;SDS011;61171;43.848;10.510;2022-12-07T03:13:22;41.40;;;30.00;;
72850;SDS011;61171;43.848;10.510;2022-12-07T03:17:25;38.60;;;28.50;;
72850;SDS011;61171;43.848;10.510;2022-12-07T03:19:26;43.38;;;31.00;;
72850;SDS011;61171;43.848;10.510;2022-12-07T03:21:27;46.10;;;31.10;;
72850;SDS011;61171;43.848;10.510;2022-12-07T03:23:31;40.97;;;31.02;;
72850;SDS011;61171;43.848;10.510;2022-12-07T03:25:32;41.78;;;29.73;;
72850;SDS011;61171;43.848;10.510;2022-12-07T03:27:36;45.85;;;32.60;;
72850;SDS011;61171;43.848;10.510;2022-12-07T03:29:38;43.07;;;29.47;;
72850;SDS011;61171;43.848;10.510;2022-12-07T03:31:41;39.20;;;28.85;;
72850;SDS011;61171;43.848;10.510;2022-12-07T03:33:48;41.78;;;30.23;;
72850;SDS011;61171;43.848;10.510;2022-12-07T03:35:51;39.38;;;29.20;;
72850;SDS011;61171;43.848;10.510;2022-12-07T03:37:59;39.30;;;28.88;;
72850;SDS011;61171;43.848;10.510;2022-12-07T03:40:12;41.17;;;31.17;;
72850;SDS011;61171;43.848;10.510;2022-12-07T03:42:14;38.20;;;29.45;;
72850;SDS011;61171;43.848;10.510;2022-12-07T03:44:15;40.30;;;29.50;;
72850;SDS011;61171;43.848;10.510;2022-12-07T03:46:20;39.10;;;28.07;;
72850;SDS011;61171;43.848;10.510;2022-12-07T03:52:44;39.47;;;28.55;;
72850;SDS011;61171;43.848;10.510;2022-12-07T03:54:48;37.50;;;28.97;;
72850;SDS011;61171;43.848;10.510;2022-12-07T03:56:49;43.63;;;30.75;;
72850;SDS011;61171;43.848;10.510;2022-12-07T03:58:50;38.30;;;29.15;;
72850;SDS011;61171;43.848;10.510;2022-12-07T04:00:51;37.60;;;28.55;;
72850;SDS011;61171;43.848;10.510;2022-12-07T04:02:52;38.23;;;29.10;;
72850;SDS011;61171;43.848;10.510;2022-12-07T04:04:52;39.77;;;28.60;;
72850;SDS011;61171;43.848;10.510;2022-12-07T04:06:53;39.97;;;29.50;;
72850;SDS011;61171;43.848;10.510;2022-12-07T04:08:53;38.25;;;28.02;;
72850;SDS011;61171;43.848;10.510;2022-12-07T04:10:53;38.53;;;28.97;;
72850;SDS011;61171;43.848;10.510;2022-12-07T04:12:53;34.60;;;26.50;;
72850;SDS011;61171;43.848;10.510;2022-12-07T04:14:54;37.80;;;28.03;;
72850;SDS011;61171;43.848;10.510;2022-12-07T04:16:55;36.87;;;27.30;;
72850;SDS011;61171;43.848;10.510;2022-12-07T04:18:56;39.13;;;28.50;;
72850;SDS011;61171;43.848;10.510;2022-12-07T04:20:56;35.87;;;26.30;;
72850;SDS011;61171;43.848;10.510;2022-12-07T04:22:57;36.50;;;26.67;;
72850;SDS011;61171;43.848;10.510;2022-12-07T04:24:57;32.57;;;24.90;;
72850;SDS011;61171;43.848;10.510;2022-12-07T04:26:57;34.83;;;25.63;;
72850;SDS011;61171;43.848;10.510;2022-12-07T04:28:58;35.40;;;25.27;;
72850;SDS011;61171;43.848;10.510;2022-12-07T04:30:58;33.90;;;25.20;;
72850;SDS011;61171;43.848;10.510;2022-12-07T04:32:59;35.00;;;25.23;;
72850;SDS011;61171;43.848;10.510;2022-12-07T04:34:59;33.30;;;24.37;;
72850;SDS011;61171;43.848;10.510;2022-12-07T04:36:59;33.87;;;24.70;;
72850;SDS011;61171;43.848;10.510;2022-12-07T04:39:00;32.63;;;24.47;;
72850;SDS011;61171;43.848;10.510;2022-12-07T04:41:07;35.53;;;24.17;;
72850;SDS011;61171;43.848;10.510;2022-12-07T04:43:07;34.28;;;23.42;;
72850;SDS011;61171;43.848;10.510;2022-12-07T04:45:08;31.60;;;22.17;;
72850;SDS011;61171;43.848;10.510;2022-12-07T04:47:08;30.83;;;22.93;;
72850;SDS011;61171;43.848;10.510;2022-12-07T04:49:08;32.33;;;23.97;;
72850;SDS011;61171;43.848;10.510;2022-12-07T04:51:09;31.20;;;23.77;;
72850;SDS011;61171;43.848;10.510;2022-12-07T04:53:09;29.40;;;22.73;;
72850;SDS011;61171;43.848;10.510;2022-12-07T04:55:09;29.40;;;22.60;;
72850;SDS011;61171;43.848;10.510;2022-12-07T04:57:10;35.67;;;24.23;;
72850;SDS011;61171;43.848;10.510;2022-12-07T04:59:13;31.40;;;22.93;;
72850;SDS011;61171;43.848;10.510;2022-12-07T05:01:14;33.92;;;24.15;;
72850;SDS011;61171;43.848;10.510;2022-12-07T05:03:15;31.13;;;23.45;;
72850;SDS011;61171;43.848;10.510;2022-12-07T05:05:15;29.33;;;22.43;;
72850;SDS011;61171;43.848;10.510;2022-12-07T05:07:15;29.63;;;21.60;;
72850;SDS011;61171;43.848;10.510;2022-12-07T05:09:16;32.07;;;22.83;;
72850;SDS011;61171;43.848;10.510;2022-12-07T05:11:16;27.87;;;21.67;;
72850;SDS011;61171;43.848;10.510;2022-12-07T05:13:35;31.70;;;23.63;;
72850;SDS011;61171;43.848;10.510;2022-12-07T05:15:36;33.17;;;23.15;;
72850;SDS011;61171;43.848;10.510;2022-12-07T05:17:36;31.50;;;23.90;;
72850;SDS011;61171;43.848;10.510;2022-12-07T05:19:36;32.57;;;23.67;;
72850;SDS011;61171;43.848;10.510;2022-12-07T05:21:37;31.13;;;22.30;;
72850;SDS011;61171;43.848;10.510;2022-12-07T05:23:37;32.77;;;23.73;;
72850;SDS011;61171;43.848;10.510;2022-12-07T05:25:37;29.27;;;22.27;;
72850;SDS011;61171;43.848;10.510;2022-12-07T05:27:38;29.00;;;21.42;;
72850;SDS011;61171;43.848;10.510;2022-12-07T05:29:38;30.23;;;22.70;;
72850;SDS011;61171;43.848;10.510;2022-12-07T05:31:38;33.37;;;22.97;;
72850;SDS011;61171;43.848;10.510;2022-12-07T05:33:38;36.10;;;26.47;;
72850;SDS011;61171;43.848;10.510;2022-12-07T05:35:39;31.80;;;24.00;;
72850;SDS011;61171;43.848;10.510;2022-12-07T05:37:40;31.08;;;23.63;;
72850;SDS011;61171;43.848;10.510;2022-12-07T05:39:40;32.57;;;23.93;;
72850;SDS011;61171;43.848;10.510;2022-12-07T05:41:42;33.92;;;23.88;;
72850;SDS011;61171;43.848;10.510;2022-12-07T05:44:01;31.33;;;23.57;;
72850;SDS011;61171;43.848;10.510;2022-12-07T05:46:01;32.75;;;23.63;;
72850;SDS011;61171;43.848;10.510;2022-12-07T05:48:03;30.98;;;24.25;;
72850;SDS011;61171;43.848;10.510;2022-12-07T05:50:03;32.13;;;24.33;;
72850;SDS011;61171;43.848;10.510;2022-12-07T05:52:04;30.83;;;23.50;;
72850;SDS011;61171;43.848;10.510;2022-12-07T05:54:05;33.45;;;25.17;;
72850;SDS011;61171;43.848;10.510;2022-12-07T05:56:05;29.73;;;22.67;;
72850;SDS011;61171;43.848;10.510;2022-12-07T05:58:05;31.77;;;22.50;;
72850;SDS011;61171;43.848;10.510;2022-12-07T06:00:25;32.35;;;23.83;;
72850;SDS011;61171;43.848;10.510;2022-12-07T06:02:25;30.33;;;23.63;;
72850;SDS011;61171;43.848;10.510;2022-12-07T06:04:26;31.08;;;22.55;;
72850;SDS011;61171;43.848;10.510;2022-12-07T06:06:26;29.50;;;22.33;;
72850;SDS011;61171;43.848;10.510;2022-12-07T06:08:26;28.47;;;21.60;;
72850;SDS011;61171;43.848;10.510;2022-12-07T06:10:27;29.53;;;21.37;;
72850;SDS011;61171;43.848;10.510;2022-12-07T06:12:27;32.33;;;23.77;;
72850;SDS011;61171;43.848;10.510;2022-12-07T06:14:38;33.00;;;23.77;;
72850;SDS011;61171;43.848;10.510;2022-12-07T06:16:38;31.90;;;22.27;;
72850;SDS011;61171;43.848;10.510;2022-12-07T06:18:39;32.10;;;23.20;;
72850;SDS011;61171;43.848;10.510;2022-12-07T06:20:39;31.20;;;22.77;;
72850;SDS011;61171;43.848;10.510;2022-12-07T06:22:39;31.03;;;22.27;;
72850;SDS011;61171;43.848;10.510;2022-12-07T06:24:40;30.93;;;23.03;;
72850;SDS011;61171;43.848;10.510;2022-12-07T06:26:40;31.98;;;22.40;;
72850;SDS011;61171;43.848;10.510;2022-12-07T06:28:41;32.13;;;23.17;;
72850;SDS011;61171;43.848;10.510;2022-12-07T06:30:44;30.45;;;22.48;;
72850;SDS011;61171;43.848;10.510;2022-12-07T06:32:44;29.73;;;21.93;;
72850;SDS011;61171;43.848;10.510;2022-12-07T06:34:44;28.97;;;20.83;;
72850;SDS011;61171;43.848;10.510;2022-12-07T06:36:46;30.80;;;21.00;;
72850;SDS011;61171;43.848;10.510;2022-12-07T06:38:51;29.37;;;21.00;;
72850;SDS011;61171;43.848;10.510;2022-12-07T06:40:51;29.43;;;21.17;;
72850;SDS011;61171;43.848;10.510;2022-12-07T06:42:51;31.00;;;22.40;;
72850;SDS011;61171;43.848;10.510;2022-12-07T06:44:51;29.07;;;22.40;;
72850;SDS011;61171;43.848;10.510;2022-12-07T06:46:52;28.77;;;21.47;;
72850;SDS011;61171;43.848;10.510;2022-12-07T06:48:52;28.83;;;21.17;;
72850;SDS011;61171;43.848;10.510;2022-12-07T06:50:53;29.17;;;21.57;;
72850;SDS011;61171;43.848;10.510;2022-12-07T06:52:53;29.20;;;21.67;;
72850;SDS011;61171;43.848;10.510;2022-12-07T06:54:53;29.53;;;23.13;;
72850;SDS011;61171;43.848;10.510;2022-12-07T06:56:54;32.63;;;23.80;;
72850;SDS011;61171;43.848;10.510;2022-12-07T06:58:54;33.67;;;22.00;;
72850;SDS011;61171;43.848;10.510;2022-12-07T07:00:54;30.20;;;21.97;;
72850;SDS011;61171;43.848;10.510;2022-12-07T07:02:54;31.20;;;23.10;;
72850;SDS011;61171;43.848;10.510;2022-12-07T07:04:55;31.70;;;22.57;;
72850;SDS011;61171;43.848;10.510;2022-12-07T07:06:55;29.90;;;21.30;;
72850;SDS011;61171;43.848;10.510;2022-12-07T07:08:55;32.03;;;22.83;;
72850;SDS011;61171;43.848;10.510;2022-12-07T07:10:55;31.23;;;21.60;;
72850;SDS011;61171;43.848;10.510;2022-12-07T07:12:56;30.20;;;21.37;;
72850;SDS011;61171;43.848;10.510;2022-12-07T07:14:56;30.50;;;21.77;;
72850;SDS011;61171;43.848;10.510;2022-12-07T07:16:56;30.60;;;21.53;;
72850;SDS011;61171;43.848;10.510;2022-12-07T07:18:57;29.03;;;20.80;;
72850;SDS011;61171;43.848;10.510;2022-12-07T07:20:57;28.93;;;21.07;;
72850;SDS011;61171;43.848;10.510;2022-12-07T07:22:57;29.70;;;20.23;;
72850;SDS011;61171;43.848;10.510;2022-12-07T07:24:58;30.87;;;20.03;;
72850;SDS011;61171;43.848;10.510;2022-12-07T07:26:58;27.47;;;19.77;;
72850;SDS011;61171;43.848;10.510;2022-12-07T07:28:58;28.07;;;18.93;;
72850;SDS011;61171;43.848;10.510;2022-12-07T07:30:58;28.73;;;19.93;;
72850;SDS011;61171;43.848;10.510;2022-12-07T07:33:02;28.03;;;19.87;;
72850;SDS011;61171;43.848;10.510;2022-12-07T07:35:03;26.63;;;19.80;;
72850;SDS011;61171;43.848;10.510;2022-12-07T07:37:03;28.87;;;19.43;;
72850;SDS011;61171;43.848;10.510;2022-12-07T07:39:03;24.23;;;18.10;;
72850;SDS011;61171;43.848;10.510;2022-12-07T07:41:04;24.17;;;18.42;;
72850;SDS011;61171;43.848;10.510;2022-12-07T07:43:05;24.70;;;17.93;;
72850;SDS011;61171;43.848;10.510;2022-12-07T07:45:05;28.93;;;19.53;;
72850;SDS011;61171;43.848;10.510;2022-12-07T07:47:05;25.70;;;18.87;;
72850;SDS011;61171;43.848;10.510;2022-12-07T07:49:06;27.27;;;19.90;;
72850;SDS011;61171;43.848;10.510;2022-12-07T07:51:06;27.48;;;19.15;;
72850;SDS011;61171;43.848;10.510;2022-12-07T07:53:07;26.23;;;18.93;;
72850;SDS011;61171;43.848;10.510;2022-12-07T07:55:08;25.30;;;18.40;;
72850;SDS011;61171;43.848;10.510;2022-12-07T07:57:08;28.17;;;19.00;;
72850;SDS011;61171;43.848;10.510;2022-12-07T07:59:09;26.80;;;19.37;;
72850;SDS011;61171;43.848;10.510;2022-12-07T08:01:09;25.63;;;19.20;;
72850;SDS011;61171;43.848;10.510;2022-12-07T08:03:09;25.90;;;19.07;;
72850;SDS011;61171;43.848;10.510;2022-12-07T08:05:10;27.50;;;19.87;;
72850;SDS011;61171;43.848;10.510;2022-12-07T08:07:11;26.20;;;19.00;;
72850;SDS011;61171;43.848;10.510;2022-12-07T08:09:11;26.07;;;18.70;;
72850;SDS011;61171;43.848;10.510;2022-12-07T08:11:12;26.77;;;18.90;;
72850;SDS011;61171;43.848;10.510;2022-12-07T08:13:13;27.53;;;19.37;;
72850;SDS011;61171;43.848;10.510;2022-12-07T08:15:15;25.67;;;18.90;;
72850;SDS011;61171;43.848;10.510;2022-12-07T08:17:15;28.80;;;19.47;;
72850;SDS011;61171;43.848;10.510;2022-12-07T08:19:15;25.50;;;19.40;;
72850;SDS011;61171;43.848;10.510;2022-12-07T08:21:15;24.77;;;19.37;;
72850;SDS011;61171;43.848;10.510;2022-12-07T08:23:16;26.67;;;18.87;;
72850;SDS011;61171;43.848;10.510;2022-12-07T08:25:16;27.17;;;18.20;;
72850;SDS011;61171;43.848;10.510;2022-12-07T08:27:17;27.17;;;18.97;;
72850;SDS011;61171;43.848;10.510;2022-12-07T08:29:17;24.70;;;17.83;;
72850;SDS011;61171;43.848;10.510;2022-12-07T08:31:17;24.03;;;18.50;;
72850;SDS011;61171;43.848;10.510;2022-12-07T08:33:18;25.05;;;19.05;;
72850;SDS011;61171;43.848;10.510;2022-12-07T08:35:22;24.48;;;18.40;;
72850;SDS011;61171;43.848;10.510;2022-12-07T08:37:23;26.02;;;19.60;;
72850;SDS011;61171;43.848;10.510;2022-12-07T08:39:23;25.93;;;18.80;;
72850;SDS011;61171;43.848;10.510;2022-12-07T08:41:23;27.47;;;19.90;;
72850;SDS011;61171;43.848;10.510;2022-12-07T08:43:23;24.40;;;18.97;;
72850;SDS011;61171;43.848;10.510;2022-12-07T08:45:24;27.73;;;20.60;;
72850;SDS011;61171;43.848;10.510;2022-12-07T08:47:24;25.90;;;18.77;;
72850;SDS011;61171;43.848;10.510;2022-12-07T08:49:36;26.77;;;19.60;;
72850;SDS011;61171;43.848;10.510;2022-12-07T08:51:37;25.55;;;18.60;;
72850;SDS011;61171;43.848;10.510;2022-12-07T08:53:38;27.20;;;19.13;;
72850;SDS011;61171;43.848;10.510;2022-12-07T08:55:39;26.38;;;19.52;;
72850;SDS011;61171;43.848;10.510;2022-12-07T08:57:39;29.47;;;20.63;;
72850;SDS011;61171;43.848;10.510;2022-12-07T08:59:40;26.80;;;19.77;;
72850;SDS011;61171;43.848;10.510;2022-12-07T09:01:40;29.80;;;21.00;;
72850;SDS011;61171;43.848;10.510;2022-12-07T09:03:41;32.23;;;22.70;;
72850;SDS011;61171;43.848;10.510;2022-12-07T09:05:41;26.83;;;20.00;;
72850;SDS011;61171;43.848;10.510;2022-12-07T09:07:42;28.37;;;21.67;;
72850;SDS011;61171;43.848;10.510;2022-12-07T09:09:43;32.08;;;22.08;;
72850;SDS011;61171;43.848;10.510;2022-12-07T09:11:43;28.43;;;20.63;;
72850;SDS011;61171;43.848;10.510;2022-12-07T09:13:45;26.45;;;19.15;;
72850;SDS011;61171;43.848;10.510;2022-12-07T09:15:45;30.47;;;21.90;;
72850;SDS011;61171;43.848;10.510;2022-12-07T09:17:45;35.20;;;23.23;;
72850;SDS011;61171;43.848;10.510;2022-12-07T09:19:45;30.90;;;23.13;;
72850;SDS011;61171;43.848;10.510;2022-12-07T09:21:46;31.63;;;23.33;;
72850;SDS011;61171;43.848;10.510;2022-12-07T09:23:46;34.13;;;23.60;;
72850;SDS011;61171;43.848;10.510;2022-12-07T09:25:46;38.87;;;24.03;;
72850;SDS011;61171;43.848;10.510;2022-12-07T09:27:46;39.13;;;25.80;;
72850;SDS011;61171;43.848;10.510;2022-12-07T09:29:47;38.37;;;25.23;;
72850;SDS011;61171;43.848;10.510;2022-12-07T09:31:47;39.10;;;24.53;;
72850;SDS011;61171;43.848;10.510;2022-12-07T09:33:53;40.63;;;24.77;;
72850;SDS011;61171;43.848;10.510;2022-12-07T09:35:53;42.57;;;25.60;;
72850;SDS011;61171;43.848;10.510;2022-12-07T09:37:54;50.70;;;27.00;;
72850;SDS011;61171;43.848;10.510;2022-12-07T09:39:54;43.10;;;26.23;;
72850;SDS011;61171;43.848;10.510;2022-12-07T09:41:54;45.03;;;25.23;;
72850;SDS011;61171;43.848;10.510;2022-12-07T09:43:57;56.30;;;28.23;;
72850;SDS011;61171;43.848;10.510;2022-12-07T09:46:00;48.25;;;27.17;;
72850;SDS011;61171;43.848;10.510;2022-12-07T09:48:01;51.30;;;25.70;;
72850;SDS011;61171;43.848;10.510;2022-12-07T09:50:05;53.03;;;26.38;;
72850;SDS011;61171;43.848;10.510;2022-12-07T09:54:08;56.27;;;28.60;;
72850;SDS011;61171;43.848;10.510;2022-12-07T09:56:11;52.92;;;27.08;;
72850;SDS011;61171;43.848;10.510;2022-12-07T09:58:18;51.73;;;27.03;;
72850;SDS011;61171;43.848;10.510;2022-12-07T10:00:20;53.20;;;27.00;;
72850;SDS011;61171;43.848;10.510;2022-12-07T10:02:35;51.58;;;26.10;;
72850;SDS011;61171;43.848;10.510;2022-12-07T10:04:35;51.83;;;26.45;;
72850;SDS011;61171;43.848;10.510;2022-12-07T10:06:37;50.17;;;27.70;;
72850;SDS011;61171;43.848;10.510;2022-12-07T10:08:38;51.23;;;27.57;;
72850;SDS011;61171;43.848;10.510;2022-12-07T10:10:38;51.07;;;27.00;;
72850;SDS011;61171;43.848;10.510;2022-12-07T10:12:52;47.90;;;26.02;;
72850;SDS011;61171;43.848;10.510;2022-12-07T10:14:54;48.17;;;25.53;;
72850;SDS011;61171;43.848;10.510;2022-12-07T10:16:55;46.45;;;24.95;;
72850;SDS011;61171;43.848;10.510;2022-12-07T10:18:56;45.97;;;25.30;;
72850;SDS011;61171;43.848;10.510;2022-12-07T10:21:03;43.17;;;22.63;;
72850;SDS011;61171;43.848;10.510;2022-12-07T10:23:05;41.63;;;21.70;;
72850;SDS011;61171;43.848;10.510;2022-12-07T10:25:09;34.70;;;19.33;;
72850;SDS011;61171;43.848;10.510;2022-12-07T10:27:20;41.53;;;20.27;;
72850;SDS011;61171;43.848;10.510;2022-12-07T10:29:22;38.70;;;19.83;;
72850;SDS011;61171;43.848;10.510;2022-12-07T10:31:23;34.40;;;19.00;;
72850;SDS011;61171;43.848;10.510;2022-12-07T10:33:28;34.90;;;20.30;;
72850;SDS011;61171;43.848;10.510;2022-12-07T10:35:29;37.45;;;21.13;;
72850;SDS011;61171;43.848;10.510;2022-12-07T10:37:30;34.17;;;19.37;;
72850;SDS011;61171;43.848;10.510;2022-12-07T10:39:40;34.38;;;21.63;;
72850;SDS011;61171;43.848;10.510;2022-12-07T10:42:15;35.30;;;20.73;;
72850;SDS011;61171;43.848;10.510;2022-12-07T10:44:08;37.50;;;21.23;;
72850;SDS011;61171;43.848;10.510;2022-12-07T10:50:51;29.95;;;17.90;;
72850;SDS011;61171;43.848;10.510;2022-12-07T11:07:15;24.03;;;15.23;;
72850;SDS011;61171;43.848;10.510;2022-12-07T11:11:34;24.97;;;13.07;;
72850;SDS011;61171;43.848;10.510;2022-12-07T11:17:55;20.08;;;11.90;;
72850;SDS011;61171;43.848;10.510;2022-12-07T11:21:57;16.40;;;10.03;;
72850;SDS011;61171;43.848;10.510;2022-12-07T11:24:13;17.90;;;10.27;;
72850;SDS011;61171;43.848;10.510;2022-12-07T11:26:21;17.13;;;9.50;;
72850;SDS011;61171;43.848;10.510;2022-12-07T11:28:30;16.83;;;10.80;;
72850;SDS011;61171;43.848;10.510;2022-12-07T11:37:09;16.77;;;10.05;;
72850;SDS011;61171;43.848;10.510;2022-12-07T11:41:20;15.57;;;9.40;;
72850;SDS011;61171;43.848;10.510;2022-12-07T11:43:24;16.05;;;8.27;;
72850;SDS011;61171;43.848;10.510;2022-12-07T11:45:27;14.75;;;8.63;;
72850;SDS011;61171;43.848;10.510;2022-12-07T11:47:38;12.93;;;7.38;;
72850;SDS011;61171;43.848;10.510;2022-12-07T11:49:43;12.17;;;7.87;;
72850;SDS011;61171;43.848;10.510;2022-12-07T11:51:44;11.73;;;6.75;;
72850;SDS011;61171;43.848;10.510;2022-12-07T11:53:46;12.57;;;5.18;;
72850;SDS011;61171;43.848;10.510;2022-12-07T11:55:50;7.35;;;4.18;;
72850;SDS011;61171;43.848;10.510;2022-12-07T11:57:56;8.07;;;3.87;;
72850;SDS011;61171;43.848;10.510;2022-12-07T12:00:04;8.95;;;5.20;;
72850;SDS011;61171;43.848;10.510;2022-12-07T12:02:11;10.48;;;4.88;;
72850;SDS011;61171;43.848;10.510;2022-12-07T12:04:25;10.02;;;4.80;;
72850;SDS011;61171;43.848;10.510;2022-12-07T12:06:27;9.23;;;4.57;;
72850;SDS011;61171;43.848;10.510;2022-12-07T12:08:28;7.67;;;4.40;;
72850;SDS011;61171;43.848;10.510;2022-12-07T12:12:52;8.30;;;4.50;;
72850;SDS011;61171;43.848;10.510;2022-12-07T12:15:09;8.23;;;4.05;;
72850;SDS011;61171;43.848;10.510;2022-12-07T12:19:26;7.97;;;3.57;;
72850;SDS011;61171;43.848;10.510;2022-12-07T12:21:27;6.57;;;3.42;;
72850;SDS011;61171;43.848;10.510;2022-12-07T12:23:34;7.80;;;3.50;;
72850;SDS011;61171;43.848;10.510;2022-12-07T12:25:40;7.07;;;3.58;;
72850;SDS011;61171;43.848;10.510;2022-12-07T12:27:42;7.85;;;3.85;;
72850;SDS011;61171;43.848;10.510;2022-12-07T12:29:50;6.13;;;3.42;;
72850;SDS011;61171;43.848;10.510;2022-12-07T12:32:35;7.15;;;3.58;;
72850;SDS011;61171;43.848;10.510;2022-12-07T12:38:34;8.00;;;2.88;;
72850;SDS011;61171;43.848;10.510;2022-12-07T12:40:49;6.80;;;3.00;;
72850;SDS011;61171;43.848;10.510;2022-12-07T12:42:50;5.88;;;2.90;;
72850;SDS011;61171;43.848;10.510;2022-12-07T12:45:04;5.03;;;2.53;;
72850;SDS011;61171;43.848;10.510;2022-12-07T12:53:36;6.68;;;2.80;;
72850;SDS011;61171;43.848;10.510;2022-12-07T12:57:42;5.75;;;2.60;;
72850;SDS011;61171;43.848;10.510;2022-12-07T13:01:47;5.75;;;2.80;;
72850;SDS011;61171;43.848;10.510;2022-12-07T13:03:52;6.07;;;2.88;;
72850;SDS011;61171;43.848;10.510;2022-12-07T13:08:18;6.20;;;2.97;;
72850;SDS011;61171;43.848;10.510;2022-12-07T13:12:24;5.88;;;2.90;;
72850;SDS011;61171;43.848;10.510;2022-12-07T13:16:40;5.40;;;2.70;;
72850;SDS011;61171;43.848;10.510;2022-12-07T13:18:41;7.57;;;3.17;;
72850;SDS011;61171;43.848;10.510;2022-12-07T13:22:48;6.95;;;3.00;;
72850;SDS011;61171;43.848;10.510;2022-12-07T13:24:49;6.22;;;3.05;;
72850;SDS011;61171;43.848;10.510;2022-12-07T13:26:51;6.27;;;2.90;;
72850;SDS011;61171;43.848;10.510;2022-12-07T13:33:20;7.50;;;2.80;;
72850;SDS011;61171;43.848;10.510;2022-12-07T13:35:31;6.33;;;2.90;;